• Join FlightAware (Why Join?)
  • Login
  • US Flag 
08:35AM EST


 

Airport Tracker/Info


-or-


 

Live Flight TrackerFlight Track Log ✈ AAL2137 ✈ 18-Apr-2013 ✈ KDFW - MGGT / GUA

Flight Track Log - Related Links

Times and Time Zones

All times are in EDT time to prevent confusion due to time zone crossing. See the AAL2137 flight status page for this flight to view local times or setup timezone preferences in your user account.

Time Position Orientation Groundspeed Altitude Reporting Facility
EDT Latitude Longitude Course Direction KTS MPH feet Rate Location/Type
06:53PM 32.9220 -97.0290 North 161 185 2,000  Level FlightAware
06:54PM 32.9470 -97.0240 10° North 208 239 2,800 2,280 Climbing FlightAware
06:54PM 32.9730 -97.0140 18° North 229 264 4,100 3,360 Climbing FlightAware
06:55PM 33.0020 -97.0000 22° Northeast 238 274 5,900 3,300 Climbing FlightAware
06:55PM 33.0140 -96.9820 52° Northeast 263 303 6,600 2,400 Climbing FlightAware
06:55PM 33.0180 -96.9620 77° East 279 321 7,100 2,400 Climbing FlightAware
06:55PM 33.0130 -96.9190 98° East 311 358 8,200 2,820 Climbing FlightAware
06:56PM 33.0070 -96.8930 105° East 318 366 9,000 2,220 Climbing FlightAware
06:56PM 32.9860 -96.8450 118° Southeast 324 373 9,900 1,080 Climbing FlightAware
06:57PM 32.9660 -96.8090 124° Southeast 341 392 10,000 600 Climbing FlightAware
06:57PM 32.9440 -96.7940 150° Southeast 333 383 10,300 1,200 Climbing FlightAware
06:57PM 32.9230 -96.7900 171° South 331 381 10,600 3,000 Climbing FlightAware
06:58PM 32.8710 -96.7930 183° South 322 371 12,800 3,360 Climbing FlightAware
06:59PM 32.7960 -96.7920 179° South 326 375 15,400 2,820 Climbing FlightAware
06:59PM 32.7320 -96.7930 181° South 339 390 17,100 2,460 Climbing FlightAware
07:00PM 32.6620 -96.7970 183° South 347 399 18,900 2,400 Climbing FlightAware
07:01PM 32.5980 -96.8000 182° South 354 407 20,500 2,460 Climbing FlightAware
07:01PM 32.5357 -96.8033 183° South 358 412 22,000 2,340 Climbing FlightAware ADS-B
07:02PM 32.4720 -96.8064 182° South 363 418 23,400 1,980 Climbing FlightAware ADS-B
07:03PM 32.4050 -96.8097 182° South 370 426 24,600 1,860 Climbing FlightAware ADS-B
07:03PM 32.3446 -96.8126 182° South 376 433 25,700 1,680 Climbing FlightAware ADS-B
07:04PM 32.2962 -96.8127 180° South 388 447 26,400 1,740 Climbing FlightAware ADS-B
07:04PM 32.2593 -96.8054 171° South 401 461 27,100 1,980 Climbing FlightAware ADS-B
07:05PM 32.1670 -96.7710 162° South 398 458 28,900 1,800 Climbing FlightAware
07:05PM 32.1317 -96.7574 162° South 403 464 29,300 1,320 Climbing FlightAware ADS-B
07:06PM 32.0584 -96.7297 162° South 406 467 30,200 1,260 Climbing FlightAware ADS-B
07:06PM 31.9983 -96.7065 162° South 413 475 30,900 1,260 Climbing FlightAware ADS-B
07:06PM 31.9896 -96.7032 162° South 413 475 31,000 1,200 Climbing FlightAware ADS-B
07:07PM 31.9346 -96.6822 162° South 416 479 31,600 1,020 Climbing FlightAware ADS-B
07:07PM 31.9184 -96.6760 162° South 417 480 31,700 960 Climbing FlightAware ADS-B
07:07PM 31.8777 -96.6605 162° South 424 488 32,100 960 Climbing FlightAware ADS-B
07:08PM 31.8611 -96.6541 162° South 428 493 32,200 720 Climbing FlightAware ADS-B
07:08PM 31.8192 -96.6370 161° South 435 501 32,500 720 Climbing FlightAware ADS-B
07:08PM 31.8030 -96.6302 160° South 438 504 32,600 720 Climbing FlightAware ADS-B
07:08PM 31.7571 -96.6110 160° South 443 510 32,900 780 Climbing FlightAware ADS-B
07:09PM 31.7447 -96.6059 161° South 443 510 33,000 900 Climbing FlightAware ADS-B
07:09PM 31.6938 -96.5849 161° South 447 514 33,400 960 Climbing FlightAware ADS-B
07:09PM 31.6853 -96.5814 161° South 447 514 33,500 960 Climbing FlightAware ADS-B
07:10PM 31.6340 -96.5604 161° South 450 518 33,900 960 Climbing FlightAware ADS-B
07:10PM 31.6263 -96.5573 161° South 450 518 34,000 1,200 Climbing FlightAware ADS-B
07:10PM 31.5741 -96.5360 161° South 451 519 34,500 1,200 Climbing FlightAware ADS-B
07:10PM 31.5660 -96.5328 161° South 450 518 34,600 1,740 Climbing FlightAware ADS-B
07:11PM 31.5139 -96.5117 161° South 441 507 35,400 1,800 Climbing FlightAware ADS-B
07:11PM 31.5076 -96.5091 161° South 440 506 35,500 1,500 Climbing FlightAware ADS-B
07:11PM 31.4553 -96.4894 162° South 430 495 36,200 1,560 Climbing FlightAware ADS-B
07:11PM 31.4503 -96.4876 163° South 429 494 36,300 1,380 Climbing FlightAware ADS-B
07:12PM 31.3980 -96.4687 163° South 424 488 36,900 1,380 Climbing FlightAware ADS-B
07:12PM 31.3934 -96.4671 163° South 424 488 37,000 180 Climbing FlightAware ADS-B
07:12PM 31.3367 -96.4463 163° South 427 491 37,000  Level FlightAware ADS-B
07:13PM 31.2795 -96.4251 162° South 430 495 37,000  Level FlightAware ADS-B
07:13PM 31.2218 -96.4034 162° South 433 498 37,000  Level FlightAware ADS-B
07:13PM 31.2201 -96.4028 163° South 433 498 37,000  Level FlightAware ADS-B
07:14PM 31.1643 -96.3817 162° South 436 502 37,000  Level FlightAware ADS-B
07:14PM 31.1620 -96.3809 163° South 436 502 37,000  Level FlightAware ADS-B
07:14PM 31.1063 -96.3599 162° South 439 505 37,000  Level FlightAware ADS-B
07:14PM 31.1037 -96.3589 162° South 439 505 37,000  Level FlightAware ADS-B
07:15PM 31.0467 -96.3376 162° South 441 507 37,000  Level FlightAware ADS-B
07:15PM 31.0438 -96.3365 162° South 441 507 37,000  Level FlightAware ADS-B
07:15PM 30.9875 -96.3156 162° South 443 510 37,000  Level FlightAware ADS-B
07:15PM 30.9836 -96.3142 163° South 443 510 37,000  Level FlightAware ADS-B
07:16PM 30.9281 -96.2936 162° South 444 511 37,000  Level FlightAware ADS-B
07:16PM 30.9224 -96.2915 162° South 444 511 37,000  Level FlightAware ADS-B
07:16PM 30.8684 -96.2714 162° South 445 512 37,000  Level FlightAware ADS-B
07:16PM 30.8626 -96.2693 163° South 445 512 37,000  Level FlightAware ADS-B
07:17PM 30.8089 -96.2495 162° South 445 512 37,000  Level FlightAware ADS-B
07:17PM 30.8036 -96.2476 163° South 445 512 37,000  Level FlightAware ADS-B
07:17PM 30.7496 -96.2277 162° South 446 513 37,000  Level FlightAware ADS-B
07:17PM 30.7443 -96.2256 161° South 446 513 37,000  Level FlightAware ADS-B
07:18PM 30.6889 -96.2051 162° South 447 514 37,000  Level FlightAware ADS-B
07:18PM 30.6848 -96.2037 164° South 447 514 37,000  Level FlightAware ADS-B
07:18PM 30.6290 -96.1831 162° South 447 514 37,000  Level FlightAware ADS-B
07:18PM 30.6250 -96.1816 162° South 447 514 37,000  Level FlightAware ADS-B
07:19PM 30.5692 -96.1612 163° South 447 514 37,000  Level FlightAware ADS-B
07:19PM 30.5647 -96.1595 162° South 447 514 37,000  Level FlightAware ADS-B
07:19PM 30.5099 -96.1394 162° South 446 513 37,000  Level FlightAware ADS-B
07:19PM 30.5046 -96.1375 163° South 446 513 37,000  Level FlightAware ADS-B
07:20PM 30.4504 -96.1175 162° South 446 513 37,000  Level FlightAware ADS-B
07:20PM 30.4456 -96.1157 162° South 446 513 37,000  Level FlightAware ADS-B
07:20PM 30.3910 -96.0958 163° South 446 513 37,000  Level FlightAware ADS-B
07:20PM 30.3861 -96.0940 162° South 446 513 37,000  Level FlightAware ADS-B
07:21PM 30.3398 -96.0770 162° South 446 513 37,000  Level FlightAware ADS-B
07:21PM 30.3380 -96.0763 161° South 447 514 37,000  Level FlightAware ADS-B
07:21PM 30.3215 -96.0687 158° South 454 522 37,000  Level FlightAware ADS-B
07:21PM 30.3186 -96.0672 156° South 455 524 37,000  Level FlightAware ADS-B
07:21PM 30.3037 -96.0587 154° Southeast 462 532 37,000  Level FlightAware ADS-B
07:21PM 30.2988 -96.0556 151° Southeast 464 534 37,000  Level FlightAware ADS-B
07:21PM 30.2841 -96.0451 148° Southeast 473 544 37,000  Level FlightAware ADS-B
07:21PM 30.2784 -96.0405 145° Southeast 475 547 37,000  Level FlightAware ADS-B
07:21PM 30.2651 -96.0288 143° Southeast 483 556 37,000  Level FlightAware ADS-B
07:21PM 30.2627 -96.0264 139° Southeast 484 557 37,000  Level FlightAware ADS-B
07:21PM 30.2512 -96.0146 138° Southeast 491 565 37,000  Level FlightAware ADS-B
07:21PM 30.2471 -96.0100 136° Southeast 493 567 37,000  Level FlightAware ADS-B
07:22PM 30.2026 -95.9571 134° Southeast 496 571 37,000  Level FlightAware ADS-B
07:22PM 30.1986 -95.9524 135° Southeast 496 571 37,000  Level FlightAware ADS-B
07:22PM 30.1543 -95.8995 134° Southeast 496 571 37,000  Level FlightAware ADS-B
07:23PM 30.1488 -95.8931 135° Southeast 496 571 37,000  Level FlightAware ADS-B
07:23PM 30.1051 -95.8412 134° Southeast 494 568 37,000  Level FlightAware ADS-B
07:23PM 30.1002 -95.8354 134° Southeast 494 568 37,000  Level FlightAware ADS-B
07:23PM 30.0571 -95.7844 134° Southeast 494 568 37,000  Level FlightAware ADS-B
07:24PM 30.0522 -95.7786 134° Southeast 494 568 37,000  Level FlightAware ADS-B
07:24PM 30.0088 -95.7275 134° Southeast 494 568 37,000  Level FlightAware ADS-B
07:24PM 30.0021 -95.7196 134° Southeast 494 568 37,000  Level FlightAware ADS-B
07:24PM 29.9589 -95.6689 135° Southeast 493 567 37,000  Level FlightAware ADS-B
07:25PM 29.9525 -95.6614 135° Southeast 493 567 37,000  Level FlightAware ADS-B
07:25PM 29.9032 -95.6037 135° Southeast 494 568 37,000  Level FlightAware ADS-B
07:25PM 29.9008 -95.6009 135° Southeast 494 568 37,000  Level FlightAware ADS-B
07:26PM 29.8549 -95.5473 135° Southeast 494 568 37,000  Level FlightAware ADS-B
07:26PM 29.8471 -95.5382 135° Southeast 495 570 37,000  Level FlightAware ADS-B
07:26PM 29.7995 -95.4827 135° Southeast 495 570 37,000  Level FlightAware ADS-B
07:26PM 29.7963 -95.4790 135° Southeast 495 570 37,000  Level FlightAware ADS-B
07:27PM 29.7510 -95.4260 135° Southeast 494 568 37,000  Level FlightAware ADS-B
07:27PM 29.7353 -95.4076 134° Southeast 494 568 37,000  Level FlightAware ADS-B
07:27PM 29.7028 -95.3696 135° Southeast 494 568 37,000  Level FlightAware ADS-B
07:27PM 29.6871 -95.3513 135° Southeast 494 568 37,000  Level FlightAware ADS-B
07:28PM 29.6542 -95.3129 135° Southeast 494 568 37,000  Level FlightAware ADS-B
07:28PM 29.6379 -95.2938 134° Southeast 495 570 37,000  Level FlightAware ADS-B
07:28PM 29.6025 -95.2527 135° Southeast 495 570 37,000  Level FlightAware ADS-B
07:28PM 29.5895 -95.2376 135° Southeast 495 570 37,000  Level FlightAware ADS-B
07:29PM 29.5539 -95.1963 135° Southeast 496 571 37,000  Level FlightAware ADS-B
07:29PM 29.5392 -95.1793 135° Southeast 496 571 37,000  Level FlightAware ADS-B
07:29PM 29.5042 -95.1387 135° Southeast 496 571 37,000  Level FlightAware ADS-B
07:29PM 29.4893 -95.1215 135° Southeast 496 571 37,000  Level FlightAware ADS-B
07:30PM 29.4552 -95.0823 135° Southeast 497 572 37,000  Level FlightAware ADS-B
07:30PM 29.4061 -95.0256 135° Southeast 499 574 37,000  Level FlightAware ADS-B
07:30PM 29.3963 -95.0143 135° Southeast 499 574 37,000  Level FlightAware ADS-B
07:31PM 29.3571 -94.9691 135° Southeast 500 575 37,000  Level FlightAware ADS-B
07:31PM 29.3449 -94.9549 135° Southeast 500 575 37,000  Level FlightAware ADS-B
07:31PM 29.3077 -94.9121 135° Southeast 501 577 37,000  Level FlightAware ADS-B
07:31PM 29.2956 -94.8986 136° Southeast 501 577 37,000  Level FlightAware ADS-B
07:32PM 29.2755 -94.8785 139° Southeast 495 570 37,000  Level FlightAware ADS-B
07:32PM 29.2727 -94.8758 140° Southeast 495 570 37,000  Level FlightAware ADS-B
07:32PM 29.2576 -94.8625 142° Southeast 490 564 37,000  Level FlightAware ADS-B
07:32PM 29.2527 -94.8584 144° Southeast 489 563 37,000  Level FlightAware ADS-B
07:32PM 29.2472 -94.8539 144° Southeast 488 562 37,000  Level FlightAware ADS-B
07:32PM 29.2380 -94.8469 146° Southeast 485 558 37,000  Level FlightAware ADS-B
07:32PM 29.1893 -94.8132 149° Southeast 482 555 37,000  Level FlightAware ADS-B
07:32PM 29.1807 -94.8074 150° Southeast 482 555 37,000  Level FlightAware ADS-B
07:33PM 29.1307 -94.7735 149° Southeast 482 555 37,000  Level FlightAware ADS-B
07:33PM 29.0872 -94.7441 149° Southeast 482 555 37,000  Level FlightAware ADS-B
07:33PM 29.0730 -94.7345 149° Southeast 483 556 37,000  Level FlightAware ADS-B
07:34PM 29.0146 -94.6949 149° Southeast 484 557 37,000  Level FlightAware ADS-B
07:34PM 28.9836 -94.6739 149° Southeast 483 556 37,000  Level FlightAware ADS-B
07:34PM 28.9559 -94.6551 149° Southeast 483 556 37,000  Level FlightAware ADS-B
07:35PM 28.8973 -94.6155 149° Southeast 482 555 37,000  Level FlightAware ADS-B
07:35PM 28.8392 -94.5764 149° Southeast 482 555 37,000  Level FlightAware ADS-B
07:36PM 28.7808 -94.5372 150° Southeast 483 556 37,000  Level FlightAware ADS-B
07:36PM 28.7229 -94.4984 150° Southeast 482 555 37,000  Level FlightAware ADS-B
07:37PM 28.6639 -94.4587 149° Southeast 482 555 37,000  Level FlightAware ADS-B
07:37PM 28.5942 -94.4119 149° Southeast 481 554 37,000  Level FlightAware ADS-B
07:38PM 28.5320 -94.3702 149° Southeast 480 552 37,000  Level FlightAware ADS-B
07:39PM 28.4726 -94.3305 150° Southeast 481 554 37,000  Level FlightAware ADS-B
07:39PM 28.4122 -94.2902 150° Southeast 480 552 37,000  Level FlightAware ADS-B
07:40PM 28.3525 -94.2502 149° Southeast 481 554 37,000  Level FlightAware ADS-B
07:40PM 28.2851 -94.2054 150° Southeast 481 554 37,000  Level FlightAware ADS-B
07:41PM 28.2191 -94.1616 150° Southeast 481 554 37,000  Level FlightAware ADS-B
07:41PM 28.1532 -94.1126 147° Southeast 490 564 37,000  Level FlightAware ADS-B
07:42PM 28.0560 -94.0400 147° Southeast 487 560 37,000  Level FlightAware
07:43PM 28.0269 -93.9924 125° Southeast 498 573 37,000  Level FlightAware ADS-B
07:43PM 27.9604 -93.9289 140° Southeast 498 573 37,000  Level FlightAware ADS-B
07:44PM 27.9053 -93.8765 140° Southeast 499 574 37,000  Level FlightAware ADS-B
07:44PM 27.8524 -93.8263 140° Southeast 499 574 37,000  Level FlightAware ADS-B
07:46PM 27.6611 -93.6452 140° Southeast 497 572 37,000  Level FlightAware ADS-B
07:49PM 27.2911 -93.2976 140° Southeast 37,000  Level FlightAware ADS-B
07:50PM 27.2769 -93.2843 140° Southeast 498 573 37,000  Level FlightAware ADS-B
07:56PM 26.5861 -92.6984 143° Southeast 492 566 37,000  Level FlightAware ADS-B
08:00PM 26.2025 -92.4435 149° Southeast  Level FlightAware Approximate
08:01PM 26.0968 -92.3736 149° Southeast  Level FlightAware Approximate
08:02PM 25.9911 -92.3038 149° Southeast  Level FlightAware Approximate
08:03PM 25.8853 -92.2342 149° Southeast  Level FlightAware Approximate
08:04PM 25.7797 -92.1647 149° Southeast  Level FlightAware Approximate
08:05PM 25.6740 -92.0952 149° Southeast  Level FlightAware Approximate
08:06PM 25.5682 -92.0258 149° Southeast  Level FlightAware Approximate
08:07PM 25.4624 -91.9566 149° Southeast  Level FlightAware Approximate
08:08PM 25.3565 -91.8875 149° Southeast  Level FlightAware Approximate
08:09PM 25.2506 -91.8185 149° Southeast  Level FlightAware Approximate
08:10PM 25.1447 -91.7496 150° Southeast  Level FlightAware Approximate
08:11PM 25.0388 -91.6809 150° Southeast  Level FlightAware Approximate
08:12PM 24.9328 -91.6122 150° Southeast  Level FlightAware Approximate
08:13PM 24.8268 -91.5437 150° Southeast  Level FlightAware Approximate
08:14PM 24.7208 -91.4753 150° Southeast  Level FlightAware Approximate
08:15PM 24.6147 -91.4070 150° Southeast  Level FlightAware Approximate
08:16PM 24.5086 -91.3389 150° Southeast  Level FlightAware Approximate
08:17PM 24.3973 -91.2819 155° Southeast  Level FlightAware Approximate
08:18PM 24.2854 -91.2260 156° South  Level FlightAware Approximate
08:19PM 24.1732 -91.1712 156° South  Level FlightAware Approximate
08:20PM 24.0608 -91.1167 156° South  Level FlightAware Approximate
08:21PM 23.9485 -91.0622 156° South  Level FlightAware Approximate
08:22PM 23.8361 -91.0079 156° South  Level FlightAware Approximate
08:23PM 23.7237 -90.9536 156° South  Level FlightAware Approximate
08:24PM 23.6112 -90.8994 156° South  Level FlightAware Approximate
08:25PM 23.4988 -90.8454 156° South  Level FlightAware Approximate
08:26PM 23.3864 -90.7914 156° South  Level FlightAware Approximate
08:27PM 23.2738 -90.7377 157° South  Level FlightAware Approximate
08:28PM 23.1610 -90.6846 157° South  Level FlightAware Approximate
08:29PM 23.0482 -90.6316 157° South  Level FlightAware Approximate
08:30PM 22.9354 -90.5788 157° South  Level FlightAware Approximate
08:31PM 22.8225 -90.5260 157° South  Level FlightAware Approximate
08:32PM 22.7097 -90.4733 157° South  Level FlightAware Approximate
08:33PM 22.5968 -90.4206 157° South  Level FlightAware Approximate
08:34PM 22.4839 -90.3680 157° South  Level FlightAware Approximate
08:35PM 22.3711 -90.3153 157° South  Level FlightAware Approximate
08:36PM 22.2583 -90.2627 157° South  Level FlightAware Approximate
08:37PM 22.1454 -90.2102 157° South  Level FlightAware Approximate
08:38PM 22.0325 -90.1578 157° South  Level FlightAware Approximate
08:39PM 21.9196 -90.1054 157° South  Level FlightAware Approximate
08:40PM 21.8067 -90.0532 157° South  Level FlightAware Approximate
08:41PM 21.6938 -90.0010 157° South  Level FlightAware Approximate
08:42PM 21.5809 -89.9489 157° South  Level FlightAware Approximate
08:43PM 21.4681 -89.8966 157° South  Level FlightAware Approximate
08:44PM 21.3552 -89.8444 157° South  Level FlightAware Approximate
08:45PM 21.2423 -89.7922 157° South  Level FlightAware Approximate
08:46PM 21.1294 -89.7402 157° South  Level FlightAware Approximate
08:47PM 21.0165 -89.6882 157° South  Level FlightAware Approximate
08:48PM 20.9011 -89.6474 176° South  Level FlightAware Approximate
08:49PM 20.7785 -89.6377 176° South  Level FlightAware Approximate
08:50PM 20.6560 -89.6280 176° South  Level FlightAware Approximate
08:51PM 20.5334 -89.6184 176° South  Level FlightAware Approximate
08:52PM 20.4109 -89.6087 176° South  Level FlightAware Approximate
08:53PM 20.2883 -89.5991 176° South  Level FlightAware Approximate
08:54PM 20.1658 -89.5894 176° South  Level FlightAware Approximate
08:55PM 20.0432 -89.5798 176° South  Level FlightAware Approximate
08:56PM 19.9207 -89.5702 176° South  Level FlightAware Approximate
08:57PM 19.7981 -89.5607 176° South  Level FlightAware Approximate
08:58PM 19.6756 -89.5511 176° South  Level FlightAware Approximate
08:59PM 19.5530 -89.5415 176° South  Level FlightAware Approximate
09:00PM 19.4305 -89.5320 176° South  Level FlightAware Approximate
09:01PM 19.3079 -89.5225 176° South  Level FlightAware Approximate
09:02PM 19.1853 -89.5144 177° South  Level FlightAware Approximate
09:03PM 19.0625 -89.5087 177° South  Level FlightAware Approximate
09:04PM 18.9398 -89.5029 177° South  Level FlightAware Approximate
09:05PM 18.8170 -89.4972 177° South  Level FlightAware Approximate
09:06PM 18.6942 -89.4915 177° South  Level FlightAware Approximate
09:07PM 18.5715 -89.4857 177° South  Level FlightAware Approximate
09:08PM 18.4487 -89.4800 177° South  Level FlightAware Approximate
09:09PM 18.3260 -89.4743 177° South  Level FlightAware Approximate
09:10PM 18.2032 -89.4686 177° South  Level FlightAware Approximate
09:11PM 18.0804 -89.4630 177° South  Level FlightAware Approximate
09:12PM 17.9577 -89.4573 177° South  Level FlightAware Approximate
09:13PM 17.8349 -89.4516 177° South  Level FlightAware Approximate
09:14PM 17.7125 -89.4403 174° South  Level FlightAware Approximate
09:15PM 17.5902 -89.4282 175° South  Level FlightAware Approximate
09:16PM 17.4677 -89.4178 175° South  Level FlightAware Approximate
09:17PM 17.3452 -89.4073 175° South  Level FlightAware Approximate
09:18PM 17.2227 -89.3969 175° South  Level FlightAware Approximate
09:19PM 17.1003 -89.3865 175° South  Level FlightAware Approximate
09:20PM 16.9778 -89.3761 175° South  Level FlightAware Approximate
09:21PM 16.8553 -89.3667 180° South  Level FlightAware Approximate
09:22PM 16.7430 -89.4047 213° Southwest  Level FlightAware Approximate
09:23PM 16.6380 -89.4712 210° Southwest  Level FlightAware Approximate
09:24PM 16.5318 -89.5358 210° Southwest  Level FlightAware Approximate
09:25PM 16.4257 -89.6004 210° Southwest  Level FlightAware Approximate
09:26PM 16.3195 -89.6649 210° Southwest  Level FlightAware Approximate
09:27PM 16.2109 -89.7244 211° Southwest  Level FlightAware Approximate
09:28PM 16.1060 -89.7910 214° Southwest  Level FlightAware Approximate
09:29PM 16.0047 -89.8633 214° Southwest  Level FlightAware Approximate
09:30PM 15.8985 -89.9276 210° Southwest  Level FlightAware Approximate
09:31PM 15.7921 -89.9915 210° Southwest  Level FlightAware Approximate
09:32PM 15.6839 -90.0520 207° Southwest  Level FlightAware Approximate
09:33PM 15.5746 -90.1103 207° Southwest  Level FlightAware Approximate
09:34PM 15.4671 -90.1719 213° Southwest  Level FlightAware Approximate
09:35PM 15.3638 -90.2409 213° Southwest  Level FlightAware Approximate
09:36PM 15.2597 -90.3085 211° Southwest  Level FlightAware Approximate